sensor_id;sensor_type;location;lat;lon;timestamp;pressure;altitude;pressure_sealevel;temperature;humidity
10832;BME280;5469;48.574;8.768;2023-06-14T00:00:17;94401.69;;;20.46;33.52
10832;BME280;5469;48.574;8.768;2023-06-14T00:02:53;94399.22;;;20.69;32.82
10832;BME280;5469;48.574;8.768;2023-06-14T00:05:29;94407.94;;;20.78;32.49
10832;BME280;5469;48.574;8.768;2023-06-14T00:08:07;94407.31;;;20.85;32.22
10832;BME280;5469;48.574;8.768;2023-06-14T00:10:44;94404.81;;;20.48;32.84
10832;BME280;5469;48.574;8.768;2023-06-14T00:13:19;94407.97;;;20.22;33.37
10832;BME280;5469;48.574;8.768;2023-06-14T00:15:54;94398.19;;;20.01;33.76
10832;BME280;5469;48.574;8.768;2023-06-14T00:18:29;94392.81;;;20.01;33.63
10832;BME280;5469;48.574;8.768;2023-06-14T00:21:04;94399.25;;;19.84;34.43
10832;BME280;5469;48.574;8.768;2023-06-14T00:23:41;94392.22;;;19.80;34.18
10832;BME280;5469;48.574;8.768;2023-06-14T00:26:16;94393.75;;;19.93;33.81
10832;BME280;5469;48.574;8.768;2023-06-14T00:28:51;94397.84;;;19.75;34.57
10832;BME280;5469;48.574;8.768;2023-06-14T00:31:26;94396.72;;;19.76;34.36
10832;BME280;5469;48.574;8.768;2023-06-14T00:34:01;94397.75;;;19.59;34.67
10832;BME280;5469;48.574;8.768;2023-06-14T00:36:35;94394.47;;;19.65;34.68
10832;BME280;5469;48.574;8.768;2023-06-14T00:39:12;94392.91;;;19.77;34.55
10832;BME280;5469;48.574;8.768;2023-06-14T00:41:46;94384.41;;;19.75;34.58
10832;BME280;5469;48.574;8.768;2023-06-14T00:44:21;94388.78;;;19.67;34.68
10832;BME280;5469;48.574;8.768;2023-06-14T00:46:57;94386.78;;;19.52;35.03
10832;BME280;5469;48.574;8.768;2023-06-14T00:49:32;94391.38;;;19.51;34.65
10832;BME280;5469;48.574;8.768;2023-06-14T00:52:09;94390.47;;;19.47;34.97
10832;BME280;5469;48.574;8.768;2023-06-14T00:54:48;94397.53;;;19.52;34.63
10832;BME280;5469;48.574;8.768;2023-06-14T00:57:23;94397.69;;;19.31;35.03
10832;BME280;5469;48.574;8.768;2023-06-14T00:59:58;94397.69;;;19.31;34.83
10832;BME280;5469;48.574;8.768;2023-06-14T01:02:33;94397.91;;;19.38;34.43
10832;BME280;5469;48.574;8.768;2023-06-14T01:05:08;94392.94;;;19.52;34.21
10832;BME280;5469;48.574;8.768;2023-06-14T01:07:49;94395.28;;;19.54;33.98
10832;BME280;5469;48.574;8.768;2023-06-14T01:10:35;94393.38;;;19.42;34.51
10832;BME280;5469;48.574;8.768;2023-06-14T01:13:15;94387.81;;;19.35;34.70
10832;BME280;5469;48.574;8.768;2023-06-14T01:15:55;94391.84;;;19.16;35.01
10832;BME280;5469;48.574;8.768;2023-06-14T01:18:30;94389.19;;;19.04;35.33
10832;BME280;5469;48.574;8.768;2023-06-14T01:21:06;94407.31;;;18.95;35.44
10832;BME280;5469;48.574;8.768;2023-06-14T01:23:55;94397.00;;;18.85;35.85
10832;BME280;5469;48.574;8.768;2023-06-14T01:26:30;94394.28;;;18.72;35.91
10832;BME280;5469;48.574;8.768;2023-06-14T01:29:06;94396.56;;;18.83;35.93
10832;BME280;5469;48.574;8.768;2023-06-14T01:31:42;94392.19;;;19.03;35.48
10832;BME280;5469;48.574;8.768;2023-06-14T01:34:17;94388.25;;;18.75;36.48
10832;BME280;5469;48.574;8.768;2023-06-14T01:36:52;94391.63;;;18.85;35.96
10832;BME280;5469;48.574;8.768;2023-06-14T01:39:30;94398.53;;;18.73;36.30
10832;BME280;5469;48.574;8.768;2023-06-14T01:42:08;94392.53;;;18.89;35.42
10832;BME280;5469;48.574;8.768;2023-06-14T01:44:45;94401.88;;;18.58;36.36
10832;BME280;5469;48.574;8.768;2023-06-14T01:47:21;94395.16;;;18.64;35.91
10832;BME280;5469;48.574;8.768;2023-06-14T01:49:56;94394.94;;;18.69;36.52
10832;BME280;5469;48.574;8.768;2023-06-14T01:52:34;94399.84;;;18.55;36.45
10832;BME280;5469;48.574;8.768;2023-06-14T01:55:11;94400.75;;;18.59;36.02
10832;BME280;5469;48.574;8.768;2023-06-14T01:57:46;94395.72;;;18.70;35.85
10832;BME280;5469;48.574;8.768;2023-06-14T02:00:21;94401.00;;;18.66;36.06
10832;BME280;5469;48.574;8.768;2023-06-14T02:02:57;94393.16;;;18.61;36.13
10832;BME280;5469;48.574;8.768;2023-06-14T02:05:32;94395.81;;;18.49;35.95
10832;BME280;5469;48.574;8.768;2023-06-14T02:08:08;94395.59;;;18.54;36.07
10832;BME280;5469;48.574;8.768;2023-06-14T02:10:44;94395.03;;;18.48;36.14
10832;BME280;5469;48.574;8.768;2023-06-14T02:13:19;94395.56;;;18.42;36.31
10832;BME280;5469;48.574;8.768;2023-06-14T02:15:54;94402.38;;;18.39;36.27
10832;BME280;5469;48.574;8.768;2023-06-14T02:18:29;94404.47;;;18.33;36.25
10832;BME280;5469;48.574;8.768;2023-06-14T02:21:05;94394.97;;;18.24;36.68
10832;BME280;5469;48.574;8.768;2023-06-14T02:23:40;94393.34;;;18.44;35.92
10832;BME280;5469;48.574;8.768;2023-06-14T02:26:16;94399.56;;;18.36;36.10
10832;BME280;5469;48.574;8.768;2023-06-14T02:28:51;94398.44;;;18.37;35.48
10832;BME280;5469;48.574;8.768;2023-06-14T02:31:27;94391.84;;;18.22;36.57
10832;BME280;5469;48.574;8.768;2023-06-14T02:34:02;94396.53;;;18.25;36.04
10832;BME280;5469;48.574;8.768;2023-06-14T02:36:37;94394.72;;;18.17;36.48
10832;BME280;5469;48.574;8.768;2023-06-14T02:39:16;94392.50;;;17.98;37.22
10832;BME280;5469;48.574;8.768;2023-06-14T02:41:55;94388.16;;;18.26;36.37
10832;BME280;5469;48.574;8.768;2023-06-14T02:44:31;94387.50;;;18.42;36.15
10832;BME280;5469;48.574;8.768;2023-06-14T02:47:07;94392.78;;;18.05;37.10
10832;BME280;5469;48.574;8.768;2023-06-14T02:49:42;94386.09;;;18.11;36.44
10832;BME280;5469;48.574;8.768;2023-06-14T02:52:17;94395.34;;;18.34;35.56
10832;BME280;5469;48.574;8.768;2023-06-14T02:54:52;94392.28;;;17.90;37.40
10832;BME280;5469;48.574;8.768;2023-06-14T02:57:29;94393.28;;;18.19;36.53
10832;BME280;5469;48.574;8.768;2023-06-14T03:00:04;94391.53;;;18.36;35.84
10832;BME280;5469;48.574;8.768;2023-06-14T03:02:43;94386.06;;;18.32;35.97
10832;BME280;5469;48.574;8.768;2023-06-14T03:05:18;94386.34;;;18.18;36.72
10832;BME280;5469;48.574;8.768;2023-06-14T03:07:54;94387.66;;;18.12;36.80
10832;BME280;5469;48.574;8.768;2023-06-14T03:10:30;94384.31;;;18.15;36.48
10832;BME280;5469;48.574;8.768;2023-06-14T03:13:07;94388.59;;;18.16;36.21
10832;BME280;5469;48.574;8.768;2023-06-14T03:15:42;94392.41;;;17.94;36.95
10832;BME280;5469;48.574;8.768;2023-06-14T03:18:18;94393.19;;;17.95;36.84
10832;BME280;5469;48.574;8.768;2023-06-14T03:20:56;94397.84;;;17.85;37.77
10832;BME280;5469;48.574;8.768;2023-06-14T03:23:32;94397.66;;;17.90;37.16
10832;BME280;5469;48.574;8.768;2023-06-14T03:26:07;94401.69;;;17.97;36.64
10832;BME280;5469;48.574;8.768;2023-06-14T03:28:44;94398.53;;;17.95;36.98
10832;BME280;5469;48.574;8.768;2023-06-14T03:31:19;94403.78;;;17.70;37.98
10832;BME280;5469;48.574;8.768;2023-06-14T03:33:54;94400.88;;;17.33;38.08
10832;BME280;5469;48.574;8.768;2023-06-14T03:36:29;94405.41;;;17.12;39.20
10832;BME280;5469;48.574;8.768;2023-06-14T03:39:04;94406.66;;;17.65;37.49
10832;BME280;5469;48.574;8.768;2023-06-14T03:41:40;94406.38;;;17.79;37.35
10832;BME280;5469;48.574;8.768;2023-06-14T03:44:18;94407.31;;;17.83;37.19
10832;BME280;5469;48.574;8.768;2023-06-14T03:46:53;94405.22;;;17.67;38.24
10832;BME280;5469;48.574;8.768;2023-06-14T03:49:28;94407.97;;;17.59;38.08
10832;BME280;5469;48.574;8.768;2023-06-14T03:52:03;94418.78;;;17.41;39.08
10832;BME280;5469;48.574;8.768;2023-06-14T03:54:37;94418.38;;;17.81;37.66
10832;BME280;5469;48.574;8.768;2023-06-14T03:57:12;94424.34;;;17.78;39.83
10832;BME280;5469;48.574;8.768;2023-06-14T03:59:49;94421.56;;;17.54;40.66
10832;BME280;5469;48.574;8.768;2023-06-14T04:02:24;94424.66;;;17.35;39.85
10832;BME280;5469;48.574;8.768;2023-06-14T04:05:02;94431.16;;;17.25;40.44
10832;BME280;5469;48.574;8.768;2023-06-14T04:07:37;94424.25;;;17.24;40.84
10832;BME280;5469;48.574;8.768;2023-06-14T04:10:14;94435.31;;;17.14;42.38
10832;BME280;5469;48.574;8.768;2023-06-14T04:12:49;94430.63;;;17.11;43.21
10832;BME280;5469;48.574;8.768;2023-06-14T04:15:26;94436.47;;;17.34;42.85
10832;BME280;5469;48.574;8.768;2023-06-14T04:18:01;94445.16;;;17.31;42.47
10832;BME280;5469;48.574;8.768;2023-06-14T04:20:36;94448.44;;;17.36;42.47
10832;BME280;5469;48.574;8.768;2023-06-14T04:23:15;94444.47;;;17.42;41.17
10832;BME280;5469;48.574;8.768;2023-06-14T04:25:51;94448.06;;;17.46;40.47
10832;BME280;5469;48.574;8.768;2023-06-14T04:28:26;94459.25;;;17.49;40.43
10832;BME280;5469;48.574;8.768;2023-06-14T04:31:02;94449.16;;;17.45;41.23
10832;BME280;5469;48.574;8.768;2023-06-14T04:33:38;94452.47;;;17.72;40.60
10832;BME280;5469;48.574;8.768;2023-06-14T04:36:17;94454.50;;;17.75;41.01
10832;BME280;5469;48.574;8.768;2023-06-14T04:38:53;94456.25;;;17.80;40.08
10832;BME280;5469;48.574;8.768;2023-06-14T04:41:28;94452.44;;;17.81;41.51
10832;BME280;5469;48.574;8.768;2023-06-14T04:44:05;94452.28;;;17.77;41.83
10832;BME280;5469;48.574;8.768;2023-06-14T04:46:42;94450.69;;;17.76;41.44
10832;BME280;5469;48.574;8.768;2023-06-14T04:49:20;94461.25;;;17.81;41.30
10832;BME280;5469;48.574;8.768;2023-06-14T04:51:59;94462.66;;;17.87;41.79
10832;BME280;5469;48.574;8.768;2023-06-14T04:54:35;94458.44;;;17.99;40.80
10832;BME280;5469;48.574;8.768;2023-06-14T04:57:11;94467.59;;;17.98;39.92
10832;BME280;5469;48.574;8.768;2023-06-14T04:59:50;94475.97;;;17.96;40.99
10832;BME280;5469;48.574;8.768;2023-06-14T05:02:30;94469.44;;;18.06;41.19
10832;BME280;5469;48.574;8.768;2023-06-14T05:05:06;94481.47;;;18.00;41.08
10832;BME280;5469;48.574;8.768;2023-06-14T05:07:44;94472.16;;;18.18;39.84
10832;BME280;5469;48.574;8.768;2023-06-14T05:10:20;94475.56;;;18.27;40.22
10832;BME280;5469;48.574;8.768;2023-06-14T05:12:54;94473.09;;;18.22;40.37
10832;BME280;5469;48.574;8.768;2023-06-14T05:15:29;94479.38;;;18.26;39.63
10832;BME280;5469;48.574;8.768;2023-06-14T05:18:06;94474.22;;;18.33;39.99
10832;BME280;5469;48.574;8.768;2023-06-14T05:20:42;94467.56;;;18.40;40.75
10832;BME280;5469;48.574;8.768;2023-06-14T05:23:17;94468.47;;;18.44;40.06
10832;BME280;5469;48.574;8.768;2023-06-14T05:25:52;94478.03;;;18.32;40.62
10832;BME280;5469;48.574;8.768;2023-06-14T05:28:27;94472.84;;;18.48;39.35
10832;BME280;5469;48.574;8.768;2023-06-14T05:31:02;94475.53;;;18.48;39.85
10832;BME280;5469;48.574;8.768;2023-06-14T05:33:38;94472.09;;;18.60;39.33
10832;BME280;5469;48.574;8.768;2023-06-14T05:36:13;94475.88;;;18.59;38.48
10832;BME280;5469;48.574;8.768;2023-06-14T05:38:49;94475.63;;;18.52;39.65
10832;BME280;5469;48.574;8.768;2023-06-14T05:41:31;94471.91;;;18.65;39.56
10832;BME280;5469;48.574;8.768;2023-06-14T05:44:06;94482.84;;;18.60;38.82
10832;BME280;5469;48.574;8.768;2023-06-14T05:46:42;94484.13;;;18.75;39.56
10832;BME280;5469;48.574;8.768;2023-06-14T05:49:18;94491.31;;;18.62;40.53
10832;BME280;5469;48.574;8.768;2023-06-14T05:51:53;94489.94;;;18.44;40.46
10832;BME280;5469;48.574;8.768;2023-06-14T05:54:28;94495.81;;;18.58;39.66
10832;BME280;5469;48.574;8.768;2023-06-14T05:57:05;94495.66;;;18.54;40.46
10832;BME280;5469;48.574;8.768;2023-06-14T05:59:40;94490.78;;;18.69;39.75
10832;BME280;5469;48.574;8.768;2023-06-14T06:02:15;94503.41;;;18.56;40.69
10832;BME280;5469;48.574;8.768;2023-06-14T06:04:52;94512.78;;;18.62;40.53
10832;BME280;5469;48.574;8.768;2023-06-14T06:07:27;94507.63;;;18.45;40.96
10832;BME280;5469;48.574;8.768;2023-06-14T06:10:02;94507.44;;;18.62;41.29
10832;BME280;5469;48.574;8.768;2023-06-14T06:12:38;94511.25;;;18.61;40.51
10832;BME280;5469;48.574;8.768;2023-06-14T06:15:13;94506.53;;;18.58;40.86
10832;BME280;5469;48.574;8.768;2023-06-14T06:17:48;94511.75;;;18.75;39.56
10832;BME280;5469;48.574;8.768;2023-06-14T06:20:24;94510.16;;;18.74;40.96
10832;BME280;5469;48.574;8.768;2023-06-14T06:23:02;94511.19;;;18.49;41.93
10832;BME280;5469;48.574;8.768;2023-06-14T06:25:37;94519.06;;;18.87;41.67
10832;BME280;5469;48.574;8.768;2023-06-14T06:28:12;94517.13;;;18.75;41.52
10832;BME280;5469;48.574;8.768;2023-06-14T06:30:47;94520.53;;;18.97;40.37
10832;BME280;5469;48.574;8.768;2023-06-14T06:33:22;94525.91;;;19.09;41.08
10832;BME280;5469;48.574;8.768;2023-06-14T06:35:58;94522.53;;;18.88;41.14
10832;BME280;5469;48.574;8.768;2023-06-14T06:38:33;94517.00;;;19.17;40.22
10832;BME280;5469;48.574;8.768;2023-06-14T06:41:08;94520.34;;;19.02;40.63
10832;BME280;5469;48.574;8.768;2023-06-14T06:43:43;94528.19;;;19.07;39.70
10832;BME280;5469;48.574;8.768;2023-06-14T06:46:18;94528.88;;;19.29;39.48
10832;BME280;5469;48.574;8.768;2023-06-14T06:48:53;94531.78;;;19.36;38.69
10832;BME280;5469;48.574;8.768;2023-06-14T06:51:29;94532.69;;;19.52;39.03
10832;BME280;5469;48.574;8.768;2023-06-14T06:54:05;94527.53;;;19.47;39.23
10832;BME280;5469;48.574;8.768;2023-06-14T06:56:41;94535.59;;;19.35;39.41
10832;BME280;5469;48.574;8.768;2023-06-14T06:59:16;94534.25;;;19.53;38.97
10832;BME280;5469;48.574;8.768;2023-06-14T07:01:51;94548.59;;;19.45;39.86
10832;BME280;5469;48.574;8.768;2023-06-14T07:04:25;94541.22;;;19.79;38.81
10832;BME280;5469;48.574;8.768;2023-06-14T07:07:02;94541.13;;;19.88;38.33
10832;BME280;5469;48.574;8.768;2023-06-14T07:09:37;94548.19;;;19.68;39.44
10832;BME280;5469;48.574;8.768;2023-06-14T07:12:11;94546.38;;;19.84;38.89
10832;BME280;5469;48.574;8.768;2023-06-14T07:14:47;94539.19;;;20.00;38.21
10832;BME280;5469;48.574;8.768;2023-06-14T07:17:22;94543.75;;;20.24;37.45
10832;BME280;5469;48.574;8.768;2023-06-14T07:19:57;94542.34;;;19.90;39.96
10832;BME280;5469;48.574;8.768;2023-06-14T07:22:33;94551.78;;;20.37;38.61
10832;BME280;5469;48.574;8.768;2023-06-14T07:25:09;94550.34;;;20.27;38.39
10832;BME280;5469;48.574;8.768;2023-06-14T07:27:47;94555.50;;;20.20;38.45
10832;BME280;5469;48.574;8.768;2023-06-14T07:30:22;94559.38;;;20.47;39.00
10832;BME280;5469;48.574;8.768;2023-06-14T07:32:59;94554.09;;;20.50;38.22
10832;BME280;5469;48.574;8.768;2023-06-14T07:35:34;94559.41;;;20.75;38.63
10832;BME280;5469;48.574;8.768;2023-06-14T07:38:10;94552.50;;;20.62;39.09
10832;BME280;5469;48.574;8.768;2023-06-14T07:40:45;94555.09;;;20.86;37.03
10832;BME280;5469;48.574;8.768;2023-06-14T07:43:20;94558.50;;;20.83;37.96
10832;BME280;5469;48.574;8.768;2023-06-14T07:45:56;94559.31;;;21.15;38.17
10832;BME280;5469;48.574;8.768;2023-06-14T07:48:31;94553.91;;;21.44;37.60
10832;BME280;5469;48.574;8.768;2023-06-14T07:51:06;94558.63;;;21.34;38.22
10832;BME280;5469;48.574;8.768;2023-06-14T07:53:42;94556.19;;;21.29;38.45
10832;BME280;5469;48.574;8.768;2023-06-14T07:56:17;94560.25;;;21.67;37.36
10832;BME280;5469;48.574;8.768;2023-06-14T07:58:52;94559.88;;;21.85;37.14
10832;BME280;5469;48.574;8.768;2023-06-14T08:01:27;94549.94;;;21.89;38.52
10832;BME280;5469;48.574;8.768;2023-06-14T08:04:02;94564.75;;;21.63;38.56
10832;BME280;5469;48.574;8.768;2023-06-14T08:06:38;94559.88;;;21.85;36.78
10832;BME280;5469;48.574;8.768;2023-06-14T08:09:15;94565.84;;;22.10;37.75
10832;BME280;5469;48.574;8.768;2023-06-14T08:11:50;94562.09;;;22.14;36.27
10832;BME280;5469;48.574;8.768;2023-06-14T08:14:25;94562.09;;;22.14;36.86
10832;BME280;5469;48.574;8.768;2023-06-14T08:16:59;94567.59;;;22.02;35.52
10832;BME280;5469;48.574;8.768;2023-06-14T08:19:34;94568.13;;;22.23;35.81
10832;BME280;5469;48.574;8.768;2023-06-14T08:22:10;94574.63;;;22.22;35.94
10832;BME280;5469;48.574;8.768;2023-06-14T08:24:47;94584.66;;;22.22;35.62
10832;BME280;5469;48.574;8.768;2023-06-14T08:27:22;94575.94;;;22.29;34.99
10832;BME280;5469;48.574;8.768;2023-06-14T08:29:57;94579.81;;;22.47;36.01
10832;BME280;5469;48.574;8.768;2023-06-14T08:32:32;94571.31;;;22.87;35.38
10832;BME280;5469;48.574;8.768;2023-06-14T08:35:08;94579.25;;;22.57;35.81
10832;BME280;5469;48.574;8.768;2023-06-14T08:37:44;94573.84;;;22.57;35.24
10832;BME280;5469;48.574;8.768;2023-06-14T08:40:23;94579.66;;;22.79;35.74
10832;BME280;5469;48.574;8.768;2023-06-14T08:42:59;94585.78;;;22.76;35.33
10832;BME280;5469;48.574;8.768;2023-06-14T08:45:34;94586.13;;;22.55;35.04
10832;BME280;5469;48.574;8.768;2023-06-14T08:48:10;94586.75;;;22.87;34.75
10832;BME280;5469;48.574;8.768;2023-06-14T08:50:49;94584.50;;;23.08;35.68
10832;BME280;5469;48.574;8.768;2023-06-14T08:53:24;94591.56;;;23.36;37.04
10832;BME280;5469;48.574;8.768;2023-06-14T08:56:02;94589.91;;;23.08;35.39
10832;BME280;5469;48.574;8.768;2023-06-14T08:58:39;94597.69;;;23.33;34.90
10832;BME280;5469;48.574;8.768;2023-06-14T09:01:18;94596.38;;;23.46;35.22
10832;BME280;5469;48.574;8.768;2023-06-14T09:03:53;94601.34;;;23.64;35.85
10832;BME280;5469;48.574;8.768;2023-06-14T09:06:31;94590.03;;;23.35;34.96
10832;BME280;5469;48.574;8.768;2023-06-14T09:09:06;94591.50;;;23.75;33.87
10832;BME280;5469;48.574;8.768;2023-06-14T09:11:44;94597.03;;;23.82;33.57
10832;BME280;5469;48.574;8.768;2023-06-14T09:14:21;94594.25;;;23.55;34.17
10832;BME280;5469;48.574;8.768;2023-06-14T09:16:56;94598.06;;;23.74;34.11
10832;BME280;5469;48.574;8.768;2023-06-14T09:19:31;94594.13;;;23.94;34.14
10832;BME280;5469;48.574;8.768;2023-06-14T09:22:06;94595.88;;;24.10;33.23
10832;BME280;5469;48.574;8.768;2023-06-14T09:24:45;94603.06;;;24.25;32.87
10832;BME280;5469;48.574;8.768;2023-06-14T09:27:21;94603.06;;;23.98;33.38
10832;BME280;5469;48.574;8.768;2023-06-14T09:29:56;94601.75;;;23.89;34.46
10832;BME280;5469;48.574;8.768;2023-06-14T09:32:31;94603.59;;;24.61;35.47
10832;BME280;5469;48.574;8.768;2023-06-14T09:35:07;94608.56;;;24.29;32.45
10832;BME280;5469;48.574;8.768;2023-06-14T09:37:43;94605.44;;;24.53;32.26
10832;BME280;5469;48.574;8.768;2023-06-14T09:40:22;94607.72;;;24.81;33.68
10832;BME280;5469;48.574;8.768;2023-06-14T09:42:59;94622.34;;;24.73;31.95
10832;BME280;5469;48.574;8.768;2023-06-14T09:45:35;94612.19;;;24.67;32.81
10832;BME280;5469;48.574;8.768;2023-06-14T09:48:10;94612.31;;;24.77;31.70
10832;BME280;5469;48.574;8.768;2023-06-14T09:50:51;94614.63;;;24.22;33.37
10832;BME280;5469;48.574;8.768;2023-06-14T09:53:29;94620.00;;;25.05;33.48
10832;BME280;5469;48.574;8.768;2023-06-14T09:56:07;94618.41;;;25.31;33.63
10832;BME280;5469;48.574;8.768;2023-06-14T09:58:44;94608.06;;;25.44;31.33
10832;BME280;5469;48.574;8.768;2023-06-14T10:01:20;94608.56;;;25.57;31.25
10832;BME280;5469;48.574;8.768;2023-06-14T10:03:59;94605.81;;;26.49;29.72
10832;BME280;5469;48.574;8.768;2023-06-14T10:06:39;94611.41;;;25.30;29.44
10832;BME280;5469;48.574;8.768;2023-06-14T10:09:14;94613.22;;;25.97;28.03
10832;BME280;5469;48.574;8.768;2023-06-14T10:11:51;94610.75;;;24.76;30.79
10832;BME280;5469;48.574;8.768;2023-06-14T10:14:28;94603.00;;;24.45;31.98
10832;BME280;5469;48.574;8.768;2023-06-14T10:17:10;94603.03;;;26.39;30.49
10832;BME280;5469;48.574;8.768;2023-06-14T10:19:50;94599.72;;;28.08;28.31
10832;BME280;5469;48.574;8.768;2023-06-14T10:22:32;94599.69;;;27.83;28.76
10832;BME280;5469;48.574;8.768;2023-06-14T10:25:12;94608.88;;;28.96;26.92
10832;BME280;5469;48.574;8.768;2023-06-14T10:27:47;94606.69;;;28.34;27.38
10832;BME280;5469;48.574;8.768;2023-06-14T10:30:28;94614.31;;;29.07;27.99
10832;BME280;5469;48.574;8.768;2023-06-14T10:33:07;94604.81;;;29.40;26.90
10832;BME280;5469;48.574;8.768;2023-06-14T10:35:43;94604.00;;;29.44;25.13
10832;BME280;5469;48.574;8.768;2023-06-14T10:38:30;94608.03;;;31.12;26.04
10832;BME280;5469;48.574;8.768;2023-06-14T10:41:06;94601.19;;;30.17;24.33
10832;BME280;5469;48.574;8.768;2023-06-14T10:43:41;94605.38;;;29.77;25.57
10832;BME280;5469;48.574;8.768;2023-06-14T10:46:18;94601.25;;;28.52;25.76
10832;BME280;5469;48.574;8.768;2023-06-14T10:48:59;94614.75;;;26.46;28.08
10832;BME280;5469;48.574;8.768;2023-06-14T10:51:41;94602.81;;;28.31;27.25
10832;BME280;5469;48.574;8.768;2023-06-14T10:54:22;94598.31;;;29.83;25.08
10832;BME280;5469;48.574;8.768;2023-06-14T10:57:01;94601.19;;;30.59;25.10
10832;BME280;5469;48.574;8.768;2023-06-14T10:59:37;94600.53;;;30.85;24.67
10832;BME280;5469;48.574;8.768;2023-06-14T11:02:32;94595.19;;;31.36;23.54
10832;BME280;5469;48.574;8.768;2023-06-14T11:08:10;94597.56;;;31.92;23.40
10832;BME280;5469;48.574;8.768;2023-06-14T11:10:53;94607.25;;;32.24;23.18
10832;BME280;5469;48.574;8.768;2023-06-14T11:13:29;94604.41;;;31.53;23.47
10832;BME280;5469;48.574;8.768;2023-06-14T11:16:04;94598.50;;;32.56;23.43
10832;BME280;5469;48.574;8.768;2023-06-14T11:18:46;94602.50;;;32.71;22.61
10832;BME280;5469;48.574;8.768;2023-06-14T11:21:23;94599.13;;;32.63;23.07
10832;BME280;5469;48.574;8.768;2023-06-14T11:23:58;94607.50;;;33.72;21.64
10832;BME280;5469;48.574;8.768;2023-06-14T11:26:33;94596.28;;;33.11;20.95
10832;BME280;5469;48.574;8.768;2023-06-14T11:29:09;94596.81;;;32.38;21.53
10832;BME280;5469;48.574;8.768;2023-06-14T11:31:46;94594.63;;;33.69;21.73
10832;BME280;5469;48.574;8.768;2023-06-14T11:34:22;94589.66;;;32.88;21.28
10832;BME280;5469;48.574;8.768;2023-06-14T11:36:57;94589.94;;;34.19;21.24
10832;BME280;5469;48.574;8.768;2023-06-14T11:39:32;94592.88;;;34.28;21.63
10832;BME280;5469;48.574;8.768;2023-06-14T11:42:08;94596.00;;;33.41;22.90
10832;BME280;5469;48.574;8.768;2023-06-14T11:44:44;94585.44;;;32.16;21.76
10832;BME280;5469;48.574;8.768;2023-06-14T11:47:20;94594.78;;;31.68;21.69
10832;BME280;5469;48.574;8.768;2023-06-14T11:49:56;94598.69;;;33.81;21.04
10832;BME280;5469;48.574;8.768;2023-06-14T11:52:33;94602.13;;;33.69;20.16
10832;BME280;5469;48.574;8.768;2023-06-14T11:55:10;94593.69;;;34.58;21.05
10832;BME280;5469;48.574;8.768;2023-06-14T11:57:46;94587.00;;;34.59;20.78
10832;BME280;5469;48.574;8.768;2023-06-14T12:00:22;94588.31;;;32.33;21.41
10832;BME280;5469;48.574;8.768;2023-06-14T12:02:59;94583.84;;;31.07;23.56
10832;BME280;5469;48.574;8.768;2023-06-14T12:05:36;94597.91;;;31.70;22.00
10832;BME280;5469;48.574;8.768;2023-06-14T12:08:12;94591.72;;;33.77;22.10
10832;BME280;5469;48.574;8.768;2023-06-14T12:10:53;94594.72;;;33.82;21.74
10832;BME280;5469;48.574;8.768;2023-06-14T12:13:28;94591.97;;;33.29;22.11
10832;BME280;5469;48.574;8.768;2023-06-14T12:16:06;94589.44;;;31.85;23.08
10832;BME280;5469;48.574;8.768;2023-06-14T12:18:42;94594.63;;;30.08;22.71
10832;BME280;5469;48.574;8.768;2023-06-14T12:21:25;94584.06;;;30.10;23.41
10832;BME280;5469;48.574;8.768;2023-06-14T12:24:06;94585.44;;;32.16;21.89
10832;BME280;5469;48.574;8.768;2023-06-14T12:26:42;94595.19;;;33.44;22.61
10832;BME280;5469;48.574;8.768;2023-06-14T12:29:18;94582.91;;;34.18;20.20
10832;BME280;5469;48.574;8.768;2023-06-14T12:31:53;94579.09;;;33.96;21.17
10832;BME280;5469;48.574;8.768;2023-06-14T12:34:30;94581.84;;;34.61;21.14
10832;BME280;5469;48.574;8.768;2023-06-14T12:37:08;94582.44;;;32.94;21.98
10832;BME280;5469;48.574;8.768;2023-06-14T12:39:44;94585.03;;;29.89;24.23
10832;BME280;5469;48.574;8.768;2023-06-14T12:42:19;94586.13;;;30.40;24.48
10832;BME280;5469;48.574;8.768;2023-06-14T12:44:54;94588.84;;;31.46;23.98
10832;BME280;5469;48.574;8.768;2023-06-14T12:47:29;94591.03;;;33.36;22.36
10832;BME280;5469;48.574;8.768;2023-06-14T12:50:05;94580.13;;;34.34;21.29
10832;BME280;5469;48.574;8.768;2023-06-14T12:52:41;94589.09;;;34.22;19.58
10832;BME280;5469;48.574;8.768;2023-06-14T12:55:18;94582.88;;;35.09;20.48
10832;BME280;5469;48.574;8.768;2023-06-14T12:57:53;94589.44;;;34.99;20.02
10832;BME280;5469;48.574;8.768;2023-06-14T13:00:28;94590.81;;;33.83;19.35
10832;BME280;5469;48.574;8.768;2023-06-14T13:03:04;94586.44;;;35.22;20.63
10832;BME280;5469;48.574;8.768;2023-06-14T13:05:39;94591.88;;;33.33;22.73
10832;BME280;5469;48.574;8.768;2023-06-14T13:08:16;94596.16;;;34.07;19.63
10832;BME280;5469;48.574;8.768;2023-06-14T13:10:51;94601.44;;;33.65;20.97
10832;BME280;5469;48.574;8.768;2023-06-14T13:13:26;94598.25;;;34.65;20.06
10832;BME280;5469;48.574;8.768;2023-06-14T13:16:01;94590.31;;;34.96;18.84
10832;BME280;5469;48.574;8.768;2023-06-14T13:18:36;94595.44;;;33.86;20.78
10832;BME280;5469;48.574;8.768;2023-06-14T13:21:10;94599.66;;;34.40;19.97
10832;BME280;5469;48.574;8.768;2023-06-14T13:23:47;94590.88;;;35.04;20.81
10832;BME280;5469;48.574;8.768;2023-06-14T13:26:21;94597.31;;;35.81;19.54
10832;BME280;5469;48.574;8.768;2023-06-14T13:28:56;94591.09;;;35.51;19.41
10832;BME280;5469;48.574;8.768;2023-06-14T13:31:31;94589.81;;;35.94;18.89
10832;BME280;5469;48.574;8.768;2023-06-14T13:34:07;94590.19;;;36.31;19.15
10832;BME280;5469;48.574;8.768;2023-06-14T13:36:42;94598.84;;;33.90;20.56
10832;BME280;5469;48.574;8.768;2023-06-14T13:39:18;94584.25;;;35.43;19.32
10832;BME280;5469;48.574;8.768;2023-06-14T13:41:53;94594.16;;;33.91;19.86
10832;BME280;5469;48.574;8.768;2023-06-14T13:44:28;94593.69;;;33.60;19.79
10832;BME280;5469;48.574;8.768;2023-06-14T13:47:03;94586.94;;;34.75;20.81
10832;BME280;5469;48.574;8.768;2023-06-14T13:49:38;94587.34;;;35.45;19.67
10832;BME280;5469;48.574;8.768;2023-06-14T13:52:13;94592.44;;;34.75;19.16
10832;BME280;5469;48.574;8.768;2023-06-14T13:54:49;94572.88;;;36.30;19.06
10832;BME280;5469;48.574;8.768;2023-06-14T13:57:25;94590.31;;;34.96;18.85
10832;BME280;5469;48.574;8.768;2023-06-14T14:00:01;94595.63;;;35.03;18.91